Terminal Aerodrome Forecast
Issued by NWS

Current Version | Previous Version | Text Only | Print | Product List | Glossary On
Versions: 1 2 3 4 5 6 7 8 9 10 11 12 13 14
000
FTUS44 KCRP 311100
TAFLRD
TAF
KLRD 311136Z 3112/0112 09010KT P6SM OVC007
      TEMPO 3112/3116 5SM -DZ BR OVC005
     FM311600 15016KT P6SM VCSH BKN012 OVC025
     FM311900 16016G22KT P6SM VCSH BKN035 OVC120
     FM312300 15012KT P6SM VCSH BKN025 OVC100
      TEMPO 3123/0103 5SM -SHRA OVC020
     FM010700 15009KT P6SM OVC009=

USA.gov is the U.S. government's official web portal to all federal, state and local government web resources and services.